Time,TemperatureF,DewpointF,PressureIn,WindDirection,WindDirectionDegrees,WindSpeedMPH,WindSpeedGustMPH,Humidity,HourlyPrecipIn,Conditions,Clouds,dailyrainin,SoftwareType,DateUTC
2013-02-06 00:00:00,20.8,18.9,30.06,WNW,293,0.0,3.0,92,0.00,,---,0.04,VWS V13.01,2013-02-06 05:00:00,
2013-02-06 00:01:00,20.8,18.9,30.05,WNW,292,0.0,0.0,92,0.00,,---,0.00,VWS V13.01,2013-02-06 05:01:00,
2013-02-06 00:03:00,20.8,18.9,30.05,WNW,293,0.0,2.0,92,0.00,,---,0.00,VWS V13.01,2013-02-06 05:03:00,
2013-02-06 00:08:00,20.9,19.0,30.05,WNW,292,0.0,5.0,92,0.00,,---,0.00,VWS V13.01,2013-02-06 05:08:00,
2013-02-06 00:13:00,21.3,19.3,30.05,WNW,288,0.0,6.0,92,0.00,,---,0.00,VWS V13.01,2013-02-06 05:13:00,
2013-02-06 00:18:00,21.6,19.6,30.05,WNW,288,2.0,6.0,92,0.00,,---,0.00,VWS V13.01,2013-02-06 05:18:00,
2013-02-06 00:23:00,21.6,19.4,30.05,WNW,288,0.0,6.0,91,0.00,,---,0.00,VWS V13.01,2013-02-06 05:23:00,
2013-02-06 00:28:00,21.7,19.5,30.06,WNW,288,0.0,6.0,91,0.00,,---,0.00,VWS V13.01,2013-02-06 05:28:00,
2013-02-06 00:33:00,21.9,19.7,30.06,WNW,288,3.0,4.0,91,0.00,,---,0.00,VWS V13.01,2013-02-06 05:33:00,
2013-02-06 00:38:00,22.0,19.5,30.05,WNW,288,1.0,5.0,90,0.00,,---,0.00,VWS V13.01,2013-02-06 05:38:00,
2013-02-06 00:43:00,22.1,19.6,30.06,WNW,288,6.0,6.0,90,0.00,,---,0.00,VWS V13.01,2013-02-06 05:43:00,
2013-02-06 00:48:00,22.2,19.7,30.06,WNW,288,4.0,6.0,90,0.00,,---,0.00,VWS V13.01,2013-02-06 05:48:00,
2013-02-06 00:54:00,22.3,19.8,30.06,West,276,4.0,9.0,90,0.00,,---,0.00,VWS V13.01,2013-02-06 05:54:00,
2013-02-06 00:59:00,22.5,19.8,30.06,West,276,6.0,9.0,89,0.00,,---,0.00,VWS V13.01,2013-02-06 05:59:00,
2013-02-06 01:04:00,22.6,19.9,30.06,West,278,6.0,8.0,89,0.00,,---,0.00,VWS V13.01,2013-02-06 06:04:00,
2013-02-06 01:09:00,22.6,19.9,30.06,West,275,7.0,8.0,89,0.00,,---,0.00,VWS V13.01,2013-02-06 06:09:00,
2013-02-06 01:14:00,22.7,20.0,30.06,West,264,6.0,11.0,89,0.00,,---,0.00,VWS V13.01,2013-02-06 06:14:00,
2013-02-06 01:19:00,22.9,19.9,30.06,West,263,6.0,13.0,88,0.00,,---,0.00,VWS V13.01,2013-02-06 06:19:00,
2013-02-06 01:24:00,22.9,19.9,30.07,West,273,6.0,13.0,88,0.00,,---,0.00,VWS V13.01,2013-02-06 06:24:00,
2013-02-06 01:29:00,23.0,20.0,30.07,West,271,7.0,13.0,88,0.00,,---,0.00,VWS V13.01,2013-02-06 06:29:00,
2013-02-06 01:34:00,23.0,20.0,30.06,West,270,6.0,8.0,88,0.00,,---,0.00,VWS V13.01,2013-02-06 06:34:00,
2013-02-06 01:39:00,23.0,20.0,30.07,West,268,5.0,8.0,88,0.00,,---,0.00,VWS V13.01,2013-02-06 06:39:00,
2013-02-06 01:44:00,23.0,20.0,30.07,West,268,5.0,8.0,88,0.00,,---,0.00,VWS V13.01,2013-02-06 06:44:00,
2013-02-06 01:49:00,23.0,20.0,30.07,West,268,5.0,8.0,88,0.00,,---,0.00,VWS V13.01,2013-02-06 06:49:00,
2013-02-06 01:54:00,23.0,20.0,30.07,West,268,6.0,8.0,88,0.00,,---,0.00,VWS V13.01,2013-02-06 06:54:00,
2013-02-06 01:59:00,22.9,19.9,30.08,West,269,5.0,8.0,88,0.00,,---,0.00,VWS V13.01,2013-02-06 06:59:00,
2013-02-06 02:04:00,23.0,20.2,30.08,West,271,6.0,9.0,89,0.00,,---,0.00,VWS V13.01,2013-02-06 07:04:00,
2013-02-06 02:09:00,23.1,20.1,30.09,West,271,7.0,9.0,88,0.00,,---,0.00,VWS V13.01,2013-02-06 07:09:00,
2013-02-06 02:14:00,23.1,20.4,30.09,West,271,6.0,9.0,89,0.00,,---,0.00,VWS V13.01,2013-02-06 07:14:00,
2013-02-06 02:20:00,23.1,20.4,30.09,West,271,6.0,9.0,89,0.00,,---,0.00,VWS V13.01,2013-02-06 07:20:00,
2013-02-06 02:25:00,23.2,20.5,30.09,West,271,6.0,9.0,89,0.00,,---,0.00,VWS V13.01,2013-02-06 07:25:00,
2013-02-06 02:30:00,23.3,20.5,30.09,WNW,286,6.0,9.0,89,0.00,,---,0.00,VWS V13.01,2013-02-06 07:30:00,
2013-02-06 02:35:00,23.3,20.5,30.09,WNW,286,5.0,7.0,89,0.00,,---,0.00,VWS V13.01,2013-02-06 07:35:00,
2013-02-06 02:40:00,23.3,20.5,30.09,WNW,286,6.0,7.0,89,0.00,,---,0.00,VWS V13.01,2013-02-06 07:40:00,
2013-02-06 02:45:00,23.3,20.5,30.10,WNW,286,6.0,7.0,89,0.00,,---,0.00,VWS V13.01,2013-02-06 07:45:00,
2013-02-06 02:50:00,23.3,20.5,30.10,WNW,286,6.0,8.0,89,0.00,,---,0.00,VWS V13.01,2013-02-06 07:50:00,
2013-02-06 02:55:00,23.4,20.6,30.10,WNW,286,5.0,8.0,89,0.00,,---,0.00,VWS V13.01,2013-02-06 07:55:00,
2013-02-06 03:00:00,23.4,20.6,30.10,WNW,284,6.0,9.0,89,0.00,,---,0.00,VWS V13.01,2013-02-06 08:00:00,
2013-02-06 03:05:00,23.5,20.7,30.10,WNW,296,4.0,9.0,89,0.00,,---,0.00,VWS V13.01,2013-02-06 08:05:00,
2013-02-06 03:10:00,23.5,20.7,30.10,WNW,287,10.0,10.0,89,0.00,,---,0.00,VWS V13.01,2013-02-06 08:10:00,
2013-02-06 03:15:00,23.6,20.8,30.10,WNW,288,7.0,10.0,89,0.00,,---,0.00,VWS V13.01,2013-02-06 08:15:00,
2013-02-06 03:20:00,23.6,20.8,30.10,West,281,7.0,10.0,89,0.00,,---,0.00,VWS V13.01,2013-02-06 08:20:00,
2013-02-06 03:25:00,23.6,20.8,30.10,WNW,282,8.0,11.0,89,0.00,,---,0.00,VWS V13.01,2013-02-06 08:25:00,
2013-02-06 03:30:00,23.6,21.1,30.10,West,272,8.0,8.0,90,0.00,,---,0.00,VWS V13.01,2013-02-06 08:30:00,
2013-02-06 03:35:00,23.6,21.1,30.10,West,271,6.0,10.0,90,0.00,,---,0.00,VWS V13.01,2013-02-06 08:35:00,
2013-02-06 03:40:00,23.6,21.1,30.09,West,279,5.0,10.0,90,0.00,,---,0.00,VWS V13.01,2013-02-06 08:40:00,
2013-02-06 03:46:00,23.7,21.2,30.10,West,279,4.0,10.0,90,0.00,,---,0.00,VWS V13.01,2013-02-06 08:46:00,
2013-02-06 03:51:00,23.8,21.3,30.09,West,267,8.0,11.0,90,0.00,,---,0.00,VWS V13.01,2013-02-06 08:51:00,
2013-02-06 03:56:00,23.8,21.6,30.10,West,279,6.0,11.0,91,0.00,,---,0.00,VWS V13.01,2013-02-06 08:56:00,
2013-02-06 04:01:00,23.8,21.6,30.11,West,267,6.0,8.0,91,0.00,,---,0.00,VWS V13.01,2013-02-06 09:01:00,
2013-02-06 04:06:00,23.8,21.6,30.11,West,277,4.0,11.0,91,0.00,,---,0.00,VWS V13.01,2013-02-06 09:06:00,
2013-02-06 04:11:00,23.8,21.6,30.12,West,278,6.0,11.0,91,0.00,,---,0.00,VWS V13.01,2013-02-06 09:11:00,
2013-02-06 04:16:00,23.8,21.6,30.13,West,273,9.0,11.0,91,0.00,,---,0.00,VWS V13.01,2013-02-06 09:16:00,
2013-02-06 04:21:00,23.9,21.9,30.13,West,274,8.0,11.0,92,0.00,,---,0.00,VWS V13.01,2013-02-06 09:21:00,
2013-02-06 04:26:00,24.0,22.0,30.13,West,279,6.0,11.0,92,0.00,,---,0.00,VWS V13.01,2013-02-06 09:26:00,
2013-02-06 04:31:00,24.0,22.0,30.14,West,273,7.0,7.0,92,0.00,,---,0.00,VWS V13.01,2013-02-06 09:31:00,
2013-02-06 04:36:00,24.2,22.2,30.14,West,275,9.0,9.0,92,0.00,,---,0.00,VWS V13.01,2013-02-06 09:36:00,
2013-02-06 04:41:00,24.3,22.6,30.14,West,264,7.0,10.0,93,0.00,,---,0.00,VWS V13.01,2013-02-06 09:41:00,
2013-02-06 04:46:00,24.4,22.7,30.15,West,268,7.0,10.0,93,0.00,,---,0.00,VWS V13.01,2013-02-06 09:46:00,
2013-02-06 04:51:00,24.4,22.7,30.15,West,268,4.0,11.0,93,0.00,,---,0.00,VWS V13.01,2013-02-06 09:51:00,
2013-02-06 04:57:00,24.4,22.7,30.15,WSW,250,7.0,11.0,93,0.00,,---,0.00,VWS V13.01,2013-02-06 09:57:00,
2013-02-06 05:02:00,24.4,22.7,30.15,West,277,10.0,11.0,93,0.00,,---,0.00,VWS V13.01,2013-02-06 10:02:00,
2013-02-06 05:07:00,24.5,22.8,30.15,West,273,5.0,11.0,93,0.00,,---,0.00,VWS V13.01,2013-02-06 10:07:00,
2013-02-06 05:12:00,24.4,22.7,30.15,West,265,7.0,11.0,93,0.00,,---,0.00,VWS V13.01,2013-02-06 10:12:00,
2013-02-06 05:17:00,24.5,22.8,30.15,WNW,283,5.0,11.0,93,0.00,,---,0.00,VWS V13.01,2013-02-06 10:17:00,
2013-02-06 05:22:00,24.5,22.8,30.16,West,277,5.0,11.0,93,0.00,,---,0.00,VWS V13.01,2013-02-06 10:22:00,
2013-02-06 05:27:00,24.5,22.8,30.16,WNW,288,6.0,11.0,93,0.00,,---,0.00,VWS V13.01,2013-02-06 10:27:00,
2013-02-06 05:32:00,24.5,22.8,30.16,West,275,6.0,9.0,93,0.00,,---,0.00,VWS V13.01,2013-02-06 10:32:00,
2013-02-06 05:37:00,24.6,22.9,30.16,West,269,8.0,11.0,93,0.00,,---,0.00,VWS V13.01,2013-02-06 10:37:00,
2013-02-06 05:42:00,24.7,23.0,30.16,WSW,246,5.0,11.0,93,0.00,,---,0.00,VWS V13.01,2013-02-06 10:42:00,
2013-02-06 05:47:00,24.8,23.1,30.16,WSW,243,7.0,11.0,93,0.00,,---,0.00,VWS V13.01,2013-02-06 10:47:00,
2013-02-06 05:52:00,24.8,23.1,30.16,West,259,6.0,11.0,93,0.00,,---,0.00,VWS V13.01,2013-02-06 10:52:00,
2013-02-06 05:58:00,24.8,23.1,30.16,West,259,5.0,11.0,93,0.00,,---,0.00,VWS V13.01,2013-02-06 10:58:00,
2013-02-06 06:03:00,24.7,23.0,30.16,West,259,7.0,7.0,93,0.00,,---,0.00,VWS V13.01,2013-02-06 11:03:00,
2013-02-06 06:08:00,24.7,23.0,30.17,West,259,5.0,7.0,93,0.00,,---,0.00,VWS V13.01,2013-02-06 11:08:00,
2013-02-06 06:13:00,24.7,23.0,30.18,West,265,5.0,7.0,93,0.00,,---,0.00,VWS V13.01,2013-02-06 11:13:00,
2013-02-06 06:18:00,24.7,23.0,30.18,West,265,5.0,8.0,93,0.00,,---,0.00,VWS V13.01,2013-02-06 11:18:00,
2013-02-06 06:23:00,24.7,23.0,30.18,West,264,8.0,9.0,93,0.00,,---,0.00,VWS V13.01,2013-02-06 11:23:00,
2013-02-06 06:28:00,24.7,23.0,30.19,WNW,296,0.0,9.0,93,0.00,,---,0.00,VWS V13.01,2013-02-06 11:28:00,
2013-02-06 06:33:00,24.6,22.9,30.19,WNW,294,12.0,12.0,93,0.00,,---,0.00,VWS V13.01,2013-02-06 11:33:00,
2013-02-06 06:38:00,24.6,22.9,30.20,NW,314,7.0,15.0,93,0.00,,---,0.00,VWS V13.01,2013-02-06 11:38:00,
2013-02-06 06:44:00,24.5,22.5,30.20,NW,318,8.0,15.0,92,0.00,,---,0.00,VWS V13.01,2013-02-06 11:44:00,
2013-02-06 06:49:00,24.5,22.5,30.21,West,274,7.0,15.0,92,0.00,,---,0.00,VWS V13.01,2013-02-06 11:49:00,
2013-02-06 06:54:00,24.5,22.2,30.22,NW,313,4.0,15.0,91,0.00,,---,0.00,VWS V13.01,2013-02-06 11:54:00,
2013-02-06 06:59:00,24.5,22.2,30.23,NW,317,9.0,15.0,91,0.00,,---,0.00,VWS V13.01,2013-02-06 11:59:00,
2013-02-06 07:04:00,24.0,21.5,30.24,West,278,8.0,19.0,90,0.00,,---,0.00,VWS V13.01,2013-02-06 12:04:00,
2013-02-06 07:09:00,23.7,20.7,30.24,NW,317,14.0,19.0,88,0.00,,---,0.00,VWS V13.01,2013-02-06 12:09:00,
2013-02-06 07:14:00,23.3,20.3,30.24,NW,325,15.0,19.0,88,0.00,,---,0.00,VWS V13.01,2013-02-06 12:14:00,
2013-02-06 07:19:00,23.0,20.0,30.25,WNW,300,10.0,19.0,88,0.00,,---,0.00,VWS V13.01,2013-02-06 12:19:00,
2013-02-06 07:24:00,22.8,19.5,30.25,NW,309,10.0,19.0,87,0.00,,---,0.00,VWS V13.01,2013-02-06 12:24:00,
2013-02-06 07:29:00,22.7,19.7,30.26,NW,304,9.0,19.0,88,0.00,,---,0.00,VWS V13.01,2013-02-06 12:29:00,
2013-02-06 07:34:00,22.5,19.5,30.26,WNW,299,8.0,14.0,88,0.00,,---,0.00,VWS V13.01,2013-02-06 12:34:00,
2013-02-06 07:39:00,22.4,19.4,30.26,NNW,337,7.0,14.0,88,0.00,,---,0.00,VWS V13.01,2013-02-06 12:39:00,
2013-02-06 07:44:00,22.4,19.4,30.27,NNW,334,5.0,14.0,88,0.00,,---,0.00,VWS V13.01,2013-02-06 12:44:00,
2013-02-06 07:50:00,22.3,19.6,30.27,NW,321,4.0,14.0,89,0.00,,---,0.00,VWS V13.01,2013-02-06 12:50:00,
2013-02-06 07:55:00,22.3,19.6,30.27,NW,326,8.0,14.0,89,0.00,,---,0.00,VWS V13.01,2013-02-06 12:55:00,
2013-02-06 08:00:00,22.3,19.6,30.27,NW,319,0.0,14.0,89,0.00,,---,0.00,VWS V13.01,2013-02-06 13:00:00,
2013-02-06 08:05:00,22.2,19.5,30.28,NW,315,5.0,8.0,89,0.00,,---,0.00,VWS V13.01,2013-02-06 13:05:00,
2013-02-06 08:10:00,22.2,19.5,30.28,NW,322,10.0,10.0,89,0.00,,---,0.00,VWS V13.01,2013-02-06 13:10:00,
2013-02-06 08:15:00,22.2,19.2,30.28,NNW,327,4.0,10.0,88,0.00,,---,0.00,VWS V13.01,2013-02-06 13:15:00,
2013-02-06 08:20:00,22.3,19.3,30.29,NW,323,5.0,10.0,88,0.00,,---,0.00,VWS V13.01,2013-02-06 13:20:00,
2013-02-06 08:25:00,22.2,19.2,30.29,NW,310,5.0,10.0,88,0.00,,---,0.00,VWS V13.01,2013-02-06 13:25:00,
2013-02-06 08:30:00,22.2,19.2,30.29,NW,305,7.0,8.0,88,0.00,,---,0.00,VWS V13.01,2013-02-06 13:30:00,
2013-02-06 08:35:00,22.2,19.2,30.30,NW,311,6.0,9.0,88,0.00,,---,0.00,VWS V13.01,2013-02-06 13:35:00,
2013-02-06 08:40:00,22.2,19.2,30.30,WNW,294,5.0,10.0,88,0.00,,---,0.00,VWS V13.01,2013-02-06 13:40:00,
2013-02-06 08:46:00,22.1,19.1,30.30,WNW,295,6.0,14.0,88,0.00,,---,0.00,VWS V13.01,2013-02-06 13:46:00,
2013-02-06 08:51:00,22.1,19.1,30.30,NW,305,5.0,14.0,88,0.00,,---,0.00,VWS V13.01,2013-02-06 13:51:00,
2013-02-06 08:56:00,22.1,19.1,30.31,WNW,296,7.0,14.0,88,0.00,,---,0.00,VWS V13.01,2013-02-06 13:56:00,
2013-02-06 09:01:00,22.0,19.0,30.31,WNW,288,6.0,9.0,88,0.00,,---,0.00,VWS V13.01,2013-02-06 14:01:00,
2013-02-06 09:06:00,22.0,19.0,30.31,WNW,289,9.0,10.0,88,0.00,,---,0.00,VWS V13.01,2013-02-06 14:06:00,
2013-02-06 09:11:00,21.9,18.9,30.31,WNW,294,8.0,10.0,88,0.00,,---,0.00,VWS V13.01,2013-02-06 14:11:00,
2013-02-06 09:16:00,21.9,18.9,30.32,WNW,293,7.0,11.0,88,0.00,,---,0.00,VWS V13.01,2013-02-06 14:16:00,
2013-02-06 09:21:00,21.9,18.9,30.32,NW,309,4.0,11.0,88,0.00,,---,0.00,VWS V13.01,2013-02-06 14:21:00,
2013-02-06 09:26:00,21.9,18.9,30.33,WNW,295,9.0,11.0,88,0.00,,---,0.00,VWS V13.01,2013-02-06 14:26:00,
2013-02-06 09:31:00,22.0,18.7,30.33,WNW,298,8.0,9.0,87,0.00,,---,0.00,VWS V13.01,2013-02-06 14:31:00,
2013-02-06 09:36:00,22.0,18.7,30.33,WNW,292,6.0,12.0,87,0.00,,---,0.00,VWS V13.01,2013-02-06 14:36:00,
2013-02-06 09:41:00,22.1,18.6,30.33,WNW,295,5.0,13.0,86,0.00,,---,0.00,VWS V13.01,2013-02-06 14:41:00,
2013-02-06 09:47:00,22.2,18.7,30.34,NW,311,6.0,13.0,86,0.00,,---,0.00,VWS V13.01,2013-02-06 14:47:00,
2013-02-06 09:52:00,22.1,18.6,30.34,WNW,302,6.0,14.0,86,0.00,,---,0.00,VWS V13.01,2013-02-06 14:52:00,
2013-02-06 09:57:00,22.1,18.3,30.34,NW,315,9.0,14.0,85,0.00,,---,0.00,VWS V13.01,2013-02-06 14:57:00,
2013-02-06 10:02:00,22.1,18.3,30.34,NW,304,10.0,13.0,85,0.00,,---,0.00,VWS V13.01,2013-02-06 15:02:00,
2013-02-06 10:07:00,22.2,18.4,30.34,WNW,302,10.0,13.0,85,0.00,,---,0.00,VWS V13.01,2013-02-06 15:07:00,
2013-02-06 10:12:00,22.2,18.4,30.34,West,275,7.0,13.0,85,0.00,,---,0.00,VWS V13.01,2013-02-06 15:12:00,
2013-02-06 10:17:00,22.2,18.1,30.35,WNW,291,11.0,13.0,84,0.00,,---,0.00,VWS V13.01,2013-02-06 15:17:00,
2013-02-06 10:22:00,22.3,17.9,30.35,NW,311,5.0,13.0,83,0.00,,---,0.00,VWS V13.01,2013-02-06 15:22:00,
2013-02-06 10:27:00,22.4,17.8,30.35,WNW,301,6.0,13.0,82,0.00,,---,0.00,VWS V13.01,2013-02-06 15:27:00,
2013-02-06 10:32:00,22.4,17.8,30.36,NW,311,7.0,12.0,82,0.00,,---,0.00,VWS V13.01,2013-02-06 15:32:00,
2013-02-06 10:37:00,22.2,17.8,30.36,NNW,331,7.0,12.0,83,0.00,,---,0.00,VWS V13.01,2013-02-06 15:37:00,
2013-02-06 10:42:00,22.2,17.8,30.36,NNW,343,7.0,12.0,83,0.00,,---,0.00,VWS V13.01,2013-02-06 15:42:00,
2013-02-06 10:47:00,22.2,17.5,30.36,NW,317,7.0,12.0,82,0.00,,---,0.00,VWS V13.01,2013-02-06 15:47:00,
2013-02-06 10:53:00,22.4,17.8,30.36,NNW,329,2.0,12.0,82,0.00,,---,0.00,VWS V13.01,2013-02-06 15:53:00,
2013-02-06 10:58:00,22.4,17.5,30.36,NW,316,7.0,12.0,81,0.00,,---,0.00,VWS V13.01,2013-02-06 15:58:00,
2013-02-06 11:03:00,22.4,17.2,30.36,NW,317,6.0,12.0,80,0.00,,---,0.00,VWS V13.01,2013-02-06 16:03:00,
2013-02-06 11:08:00,22.4,17.5,30.37,NW,319,6.0,12.0,81,0.00,,---,0.00,VWS V13.01,2013-02-06 16:08:00,
2013-02-06 11:13:00,22.6,17.9,30.38,NNW,348,6.0,12.0,82,0.00,,---,0.00,VWS V13.01,2013-02-06 16:13:00,
2013-02-06 11:18:00,22.8,17.9,30.38,NW,309,5.0,12.0,81,0.00,,---,0.00,VWS V13.01,2013-02-06 16:18:00,
2013-02-06 11:23:00,22.6,17.4,30.37,NW,312,6.0,12.0,80,0.00,,---,0.00,VWS V13.01,2013-02-06 16:23:00,
2013-02-06 11:28:00,22.5,17.0,30.38,NW,317,9.0,13.0,79,0.00,,---,0.00,VWS V13.01,2013-02-06 16:28:00,
2013-02-06 11:33:00,22.5,17.0,30.38,NW,306,7.0,8.0,79,0.00,,---,0.00,VWS V13.01,2013-02-06 16:33:00,
2013-02-06 11:38:00,22.5,16.7,30.39,NW,310,12.0,12.0,78,0.00,,---,0.00,VWS V13.01,2013-02-06 16:38:00,
2013-02-06 11:43:00,22.4,16.3,30.38,WNW,283,7.0,14.0,77,0.00,,---,0.00,VWS V13.01,2013-02-06 16:43:00,
2013-02-06 11:48:00,22.4,15.7,30.38,NW,315,10.0,15.0,75,0.00,,---,0.00,VWS V13.01,2013-02-06 16:48:00,
2013-02-06 11:53:00,22.4,15.7,30.38,NW,317,9.0,15.0,75,0.00,,---,0.00,VWS V13.01,2013-02-06 16:53:00,
2013-02-06 11:58:00,22.5,15.2,30.38,NW,324,7.0,15.0,73,0.00,,---,0.00,VWS V13.01,2013-02-06 16:58:00,
2013-02-06 12:04:00,22.5,15.2,30.37,NW,308,7.0,9.0,73,0.00,,---,0.00,VWS V13.01,2013-02-06 17:04:00,
2013-02-06 15:30:00,26.2,14.2,30.41,NW,315,4.0,12.0,60,0.00,,---,0.01,VWS V13.01,2013-02-06 20:30:00,
2013-02-06 15:46:00,26.2,14.2,30.42,NW,304,0.0,4.0,60,0.00,,---,0.01,VWS V13.01,2013-02-06 20:46:00,
2013-02-06 15:51:00,26.3,14.3,30.43,NW,319,4.0,9.0,60,0.00,,---,0.01,VWS V13.01,2013-02-06 20:51:00,
2013-02-06 15:56:00,26.2,14.2,30.42,NW,309,5.0,9.0,60,0.00,,---,0.01,VWS V13.01,2013-02-06 20:56:00,
2013-02-06 16:01:00,26.2,13.8,30.42,NW,308,1.0,4.0,59,0.00,,---,0.01,VWS V13.01,2013-02-06 21:01:00,
2013-02-06 16:06:00,26.2,13.8,30.42,NNW,338,5.0,8.0,59,0.00,,---,0.01,VWS V13.01,2013-02-06 21:06:00,
2013-02-06 16:11:00,25.8,13.9,30.42,WNW,295,5.0,9.0,60,0.00,,---,0.01,VWS V13.01,2013-02-06 21:11:00,
2013-02-06 16:16:00,25.5,14.3,30.42,WSW,254,0.0,9.0,62,0.00,,---,0.01,VWS V13.01,2013-02-06 21:16:00,
2013-02-06 16:21:00,25.7,15.6,30.41,WSW,254,2.0,9.0,65,0.00,,---,0.01,VWS V13.01,2013-02-06 21:21:00,
2013-02-06 16:26:00,25.3,15.2,30.41,WSW,257,1.0,9.0,65,0.00,,---,0.01,VWS V13.01,2013-02-06 21:26:00,
2013-02-06 16:31:00,25.0,14.6,30.41,WSW,257,2.0,6.0,64,0.00,,---,0.01,VWS V13.01,2013-02-06 21:31:00,
2013-02-06 16:37:00,24.8,15.1,30.41,WSW,257,0.0,6.0,66,0.00,,---,0.01,VWS V13.01,2013-02-06 21:37:00,
2013-02-06 16:42:00,24.5,16.1,30.41,WSW,257,0.0,6.0,70,0.00,,---,0.01,VWS V13.01,2013-02-06 21:42:00,
2013-02-06 16:47:00,24.7,16.3,30.42,WSW,257,0.0,6.0,70,0.00,,---,0.01,VWS V13.01,2013-02-06 21:47:00,
2013-02-06 16:52:00,24.7,16.3,30.42,WSW,257,0.0,6.0,70,0.00,,---,0.01,VWS V13.01,2013-02-06 21:52:00,
2013-02-06 16:57:00,24.5,16.1,30.42,WSW,257,0.0,6.0,70,0.00,,---,0.01,VWS V13.01,2013-02-06 21:57:00,
2013-02-06 17:02:00,24.1,16.4,30.42,WSW,257,0.0,0.0,72,0.00,,---,0.01,VWS V13.01,2013-02-06 22:02:00,
2013-02-06 17:07:00,23.6,15.9,30.42,WSW,257,0.0,0.0,72,0.00,,---,0.01,VWS V13.01,2013-02-06 22:07:00,
2013-02-06 17:12:00,23.3,15.6,30.43,WSW,257,0.0,1.0,72,0.00,,---,0.01,VWS V13.01,2013-02-06 22:12:00,
2013-02-06 17:17:00,23.1,15.4,30.43,WSW,257,0.0,1.0,72,0.00,,---,0.01,VWS V13.01,2013-02-06 22:17:00,
2013-02-06 17:22:00,22.6,15.6,30.43,WSW,257,0.0,1.0,74,0.00,,---,0.01,VWS V13.01,2013-02-06 22:22:00,
2013-02-06 17:27:00,21.7,15.0,30.43,WSW,257,0.0,2.0,75,0.00,,---,0.01,VWS V13.01,2013-02-06 22:27:00,
2013-02-06 17:32:00,21.3,15.2,30.44,WSW,257,0.0,0.0,77,0.00,,---,0.01,VWS V13.01,2013-02-06 22:32:00,
2013-02-06 17:37:00,21.0,14.9,30.44,WSW,257,0.0,0.0,77,0.00,,---,0.01,VWS V13.01,2013-02-06 22:37:00,
2013-02-06 17:42:00,20.6,15.1,30.44,WSW,257,0.0,0.0,79,0.00,,---,0.01,VWS V13.01,2013-02-06 22:42:00,
2013-02-06 17:48:00,20.4,14.9,30.44,WSW,257,0.0,0.0,79,0.00,,---,0.01,VWS V13.01,2013-02-06 22:48:00,
2013-02-06 17:53:00,20.1,14.6,30.45,WSW,257,0.0,0.0,79,0.00,,---,0.01,VWS V13.01,2013-02-06 22:53:00,
2013-02-06 17:58:00,19.8,14.4,30.44,WSW,257,0.0,0.0,79,0.00,,---,0.01,VWS V13.01,2013-02-06 22:58:00,
2013-02-06 18:03:00,19.7,14.3,30.45,WSW,257,0.0,0.0,79,0.00,,---,0.01,VWS V13.01,2013-02-06 23:03:00,
2013-02-06 18:08:00,19.3,13.6,30.45,WSW,257,0.0,0.0,78,0.00,,---,0.01,VWS V13.01,2013-02-06 23:08:00,
2013-02-06 18:13:00,18.7,13.3,30.45,WSW,257,0.0,0.0,79,0.00,,---,0.01,VWS V13.01,2013-02-06 23:13:00,
2013-02-06 18:18:00,17.6,11.0,30.45,WSW,257,0.0,0.0,75,0.00,,---,0.01,VWS V13.01,2013-02-06 23:18:00,
2013-02-06 18:23:00,15.9,10.0,30.45,WSW,257,0.0,0.0,77,0.00,,---,0.01,VWS V13.01,2013-02-06 23:23:00,
2013-02-06 18:28:00,14.6,9.8,30.46,WSW,257,0.0,0.0,81,0.00,,---,0.01,VWS V13.01,2013-02-06 23:28:00,
2013-02-06 18:33:00,14.6,10.7,30.46,WSW,257,0.0,1.0,84,0.00,,---,0.01,VWS V13.01,2013-02-06 23:33:00,
2013-02-06 18:38:00,14.0,9.5,30.46,WSW,257,0.0,1.0,82,0.00,,---,0.01,VWS V13.01,2013-02-06 23:38:00,
2013-02-06 18:43:00,12.5,7.8,30.46,WSW,257,0.0,1.0,81,0.00,,---,0.01,VWS V13.01,2013-02-06 23:43:00,
2013-02-06 18:48:00,11.5,7.3,30.46,WSW,257,0.0,1.0,83,0.00,,---,0.01,VWS V13.01,2013-02-06 23:48:00,
2013-02-06 18:53:00,11.4,8.0,30.47,WSW,257,0.0,1.0,86,0.00,,---,0.01,VWS V13.01,2013-02-06 23:53:00,
2013-02-06 18:58:00,11.3,7.9,30.47,WSW,257,0.0,1.0,86,0.00,,---,0.01,VWS V13.01,2013-02-06 23:58:00,
2013-02-06 19:03:00,10.8,7.4,30.47,WSW,257,0.0,0.0,86,0.00,,---,0.01,VWS V13.01,2013-02-07 00:03:00,
2013-02-06 19:09:00,10.2,7.1,30.47,WSW,257,0.0,0.0,87,0.00,,---,0.01,VWS V13.01,2013-02-07 00:09:00,
2013-02-06 19:14:00,10.6,7.8,30.47,WSW,257,0.0,0.0,88,0.00,,---,0.01,VWS V13.01,2013-02-07 00:14:00,
2013-02-06 19:19:00,11.2,8.6,30.48,WSW,257,0.0,0.0,89,0.00,,---,0.01,VWS V13.01,2013-02-07 00:19:00,
2013-02-06 19:24:00,10.7,8.1,30.48,WSW,257,0.0,0.0,89,0.00,,---,0.01,VWS V13.01,2013-02-07 00:24:00,
2013-02-06 19:29:00,9.9,7.1,30.49,WSW,257,0.0,0.0,88,0.00,,---,0.01,VWS V13.01,2013-02-07 00:29:00,
2013-02-06 19:34:00,10.0,7.4,30.49,WSW,257,0.0,0.0,89,0.00,,---,0.01,VWS V13.01,2013-02-07 00:34:00,
2013-02-06 19:39:00,10.4,8.1,30.50,WSW,257,0.0,0.0,90,0.00,,---,0.01,VWS V13.01,2013-02-07 00:39:00,
2013-02-06 19:44:00,10.6,8.2,30.50,WSW,257,0.0,0.0,90,0.00,,---,0.01,VWS V13.01,2013-02-07 00:44:00,
2013-02-06 19:49:00,10.1,7.8,30.50,WSW,257,0.0,0.0,90,0.00,,---,0.01,VWS V13.01,2013-02-07 00:49:00,
2013-02-06 19:54:00,9.6,7.0,30.50,WSW,257,0.0,0.0,89,0.00,,---,0.01,VWS V13.01,2013-02-07 00:54:00,
2013-02-06 19:59:00,8.6,6.0,30.51,WSW,257,0.0,0.0,89,0.00,,---,0.01,VWS V13.01,2013-02-07 00:59:00,
2013-02-06 20:04:00,9.0,6.7,30.51,WSW,257,0.0,0.0,90,0.00,,---,0.01,VWS V13.01,2013-02-07 01:04:00,
2013-02-06 20:10:00,9.9,7.8,30.51,WSW,257,0.0,0.0,91,0.00,,---,0.01,VWS V13.01,2013-02-07 01:10:00,
2013-02-06 20:15:00,10.1,8.0,30.51,WSW,257,0.0,0.0,91,0.00,,---,0.01,VWS V13.01,2013-02-07 01:15:00,
2013-02-06 20:20:00,9.2,6.9,30.51,WSW,257,0.0,0.0,90,0.00,,---,0.01,VWS V13.01,2013-02-07 01:20:00,
2013-02-06 20:25:00,8.9,6.6,30.51,WSW,257,0.0,0.0,90,0.00,,---,0.01,VWS V13.01,2013-02-07 01:25:00,
2013-02-06 20:30:00,8.8,6.5,30.51,WSW,257,0.0,0.0,90,0.00,,---,0.01,VWS V13.01,2013-02-07 01:30:00,
2013-02-06 20:35:00,8.4,6.1,30.51,WSW,257,0.0,0.0,90,0.00,,---,0.01,VWS V13.01,2013-02-07 01:35:00,
2013-02-06 20:40:00,8.0,5.7,30.52,WSW,257,0.0,0.0,90,0.00,,---,0.01,VWS V13.01,2013-02-07 01:40:00,
2013-02-06 20:45:00,7.6,5.0,30.52,WSW,257,0.0,0.0,89,0.00,,---,0.01,VWS V13.01,2013-02-07 01:45:00,
2013-02-06 20:51:00,8.2,5.9,30.52,WSW,257,0.0,0.0,90,0.00,,---,0.01,VWS V13.01,2013-02-07 01:51:00,
2013-02-06 20:56:00,8.2,5.9,30.52,WSW,257,0.0,0.0,90,0.00,,---,0.01,VWS V13.01,2013-02-07 01:56:00,
2013-02-06 21:01:00,7.2,4.7,30.52,WSW,257,0.0,0.0,89,0.00,,---,0.01,VWS V13.01,2013-02-07 02:01:00,
2013-02-06 21:06:00,6.6,4.1,30.52,WSW,257,0.0,0.0,89,0.00,,---,0.01,VWS V13.01,2013-02-07 02:06:00,
2013-02-06 21:11:00,6.3,3.8,30.53,WSW,257,0.0,0.0,89,0.00,,---,0.01,VWS V13.01,2013-02-07 02:11:00,
2013-02-06 21:16:00,6.4,4.1,30.53,WSW,257,0.0,0.0,90,0.00,,---,0.01,VWS V13.01,2013-02-07 02:16:00,
2013-02-06 21:21:00,6.5,4.2,30.53,WSW,257,0.0,0.0,90,0.00,,---,0.01,VWS V13.01,2013-02-07 02:21:00,
2013-02-06 21:26:00,6.6,4.3,30.53,WSW,257,0.0,0.0,90,0.00,,---,0.01,VWS V13.01,2013-02-07 02:26:00,
2013-02-06 21:31:00,6.4,4.1,30.53,WSW,257,0.0,0.0,90,0.00,,---,0.01,VWS V13.01,2013-02-07 02:31:00,
2013-02-06 21:36:00,6.6,4.3,30.53,WSW,257,0.0,0.0,90,0.00,,---,0.01,VWS V13.01,2013-02-07 02:36:00,
2013-02-06 21:42:00,6.2,3.9,30.53,WSW,257,0.0,0.0,90,0.00,,---,0.01,VWS V13.01,2013-02-07 02:42:00,
2013-02-06 21:47:00,5.6,3.1,30.53,WSW,257,0.0,0.0,89,0.00,,---,0.01,VWS V13.01,2013-02-07 02:47:00,
2013-02-06 21:52:00,5.4,3.1,30.53,WSW,257,0.0,0.0,90,0.00,,---,0.01,VWS V13.01,2013-02-07 02:52:00,
2013-02-06 21:57:00,5.8,3.5,30.53,WSW,257,0.0,0.0,90,0.00,,---,0.01,VWS V13.01,2013-02-07 02:57:00,
2013-02-06 22:02:00,6.4,4.3,30.53,WSW,257,0.0,0.0,91,0.00,,---,0.01,VWS V13.01,2013-02-07 03:02:00,
2013-02-06 22:07:00,6.5,4.2,30.53,WSW,257,0.0,0.0,90,0.00,,---,0.01,VWS V13.01,2013-02-07 03:07:00,
2013-02-06 22:12:00,5.8,3.3,30.54,WSW,257,0.0,0.0,89,0.00,,---,0.01,VWS V13.01,2013-02-07 03:12:00,
2013-02-06 22:17:00,5.6,3.3,30.54,WSW,257,0.0,0.0,90,0.00,,---,0.01,VWS V13.01,2013-02-07 03:17:00,
2013-02-06 22:22:00,5.8,3.5,30.54,WSW,257,0.0,0.0,90,0.00,,---,0.01,VWS V13.01,2013-02-07 03:22:00,
2013-02-06 22:28:00,6.0,3.9,30.54,WSW,257,0.0,0.0,91,0.00,,---,0.01,VWS V13.01,2013-02-07 03:28:00,
2013-02-06 22:33:00,6.6,4.5,30.53,WSW,257,0.0,0.0,91,0.00,,---,0.01,VWS V13.01,2013-02-07 03:33:00,
2013-02-06 22:38:00,6.1,3.8,30.53,WSW,257,0.0,0.0,90,0.00,,---,0.01,VWS V13.01,2013-02-07 03:38:00,
2013-02-06 22:43:00,5.7,3.4,30.53,WSW,257,0.0,0.0,90,0.00,,---,0.01,VWS V13.01,2013-02-07 03:43:00,
2013-02-06 22:48:00,5.9,3.6,30.53,WSW,257,0.0,0.0,90,0.00,,---,0.01,VWS V13.01,2013-02-07 03:48:00,
2013-02-06 22:53:00,5.5,3.2,30.53,WSW,257,0.0,0.0,90,0.00,,---,0.01,VWS V13.01,2013-02-07 03:53:00,
2013-02-06 22:58:00,4.9,2.6,30.53,WSW,257,0.0,0.0,90,0.00,,---,0.01,VWS V13.01,2013-02-07 03:58:00,
2013-02-06 23:03:00,5.1,2.8,30.52,WSW,257,0.0,0.0,90,0.00,,---,0.01,VWS V13.01,2013-02-07 04:03:00,
2013-02-06 23:08:00,4.7,2.2,30.53,WSW,257,0.0,0.0,89,0.00,,---,0.01,VWS V13.01,2013-02-07 04:08:00,
2013-02-06 23:13:00,3.8,1.0,30.52,WSW,257,0.0,0.0,88,0.00,,---,0.01,VWS V13.01,2013-02-07 04:13:00,
2013-02-06 23:18:00,3.3,0.6,30.52,WSW,257,0.0,0.0,88,0.00,,---,0.01,VWS V13.01,2013-02-07 04:18:00,
2013-02-06 23:23:00,2.8,0.1,30.52,WSW,257,0.0,0.0,88,0.00,,---,0.01,VWS V13.01,2013-02-07 04:23:00,
2013-02-06 23:28:00,2.5,-0.2,30.53,WSW,257,0.0,0.0,88,0.00,,---,0.01,VWS V13.01,2013-02-07 04:28:00,
2013-02-06 23:34:00,2.4,-0.3,30.53,WSW,257,0.0,0.0,88,0.00,,---,0.01,VWS V13.01,2013-02-07 04:34:00,
2013-02-06 23:39:00,2.7,0.2,30.52,WSW,257,0.0,0.0,89,0.00,,---,0.01,VWS V13.01,2013-02-07 04:39:00,
2013-02-06 23:44:00,3.5,1.2,30.52,WSW,257,0.0,0.0,90,0.00,,---,0.01,VWS V13.01,2013-02-07 04:44:00,
2013-02-06 23:49:00,4.2,1.9,30.52,WSW,257,0.0,0.0,90,0.00,,---,0.01,VWS V13.01,2013-02-07 04:49:00,
2013-02-06 23:54:00,4.3,2.0,30.52,WSW,257,0.0,0.0,90,0.00,,---,0.01,VWS V13.01,2013-02-07 04:54:00,
2013-02-06 23:59:00,5.0,2.7,30.52,WSW,257,0.0,0.0,90,0.00,,---,0.01,VWS V13.01,2013-02-07 04:59:00,